GTF weather

Great Falls International Airport
Great Falls, Montana, United States

Public forecast

Using degrees Fahrenheit for public forecast. Weather courtesy of forecast.io.

Current aviation weather report (METAR) for Great Falls International Airport

Retrieved 2019/10/15 07:09 UTC (16 minutes ago):

KGTF 150709Z 24003KT 10SM BKN027 OVC037 03/M01 A3023 RMK AO2 T00281006

Aviation forecast (TAF) for Great Falls International Airport

Retrieved 2019/10/15 06:24 UTC (1 hour ago):

TAF KGTF 150520Z 1506/1606 VRB05KT P6SM OVC040 FM151500 18010KT P6SM SCT150